Altair — 9LC2000 — position and weather

sailwx.info

Track history (hours):
 
Tides and Currents Weather Stations Pressure Air Temp Water Temp Dewpoint Dewpoint Depression Visibility Wind Speed Wind Dir Waves Ship Positions

Altair

Last reported at 2014-Nov-15 10:22 UTC. Time now 2014-Nov-25 00:34 UTC.
Position N 44°54' E 036°31'.
Warning: this ship's position is 9 days out of date.

Length 108 m; draft 2.6 m.

Type: Cargo ship. MMSI: 667021000.

Date/timePositionNaut miles runAvg speedWind from/ knotsBaromVisibWave heightAir tempDewpointWater temp
2014-Nov-15 10:22N 44°54' E 036°31'18 6.1
2014-Nov-15 07:23N 44°46' E 036°07'5 6.1
2014-Nov-15 06:33N 44°45' E 036°00'32 5.3
2014-Nov-15 00:32N 44°46' E 035°16'5 5.2
2014-Nov-14 23:32N 44°44' E 035°09'5 5.2
2014-Nov-14 22:33N 44°42' E 035°02'5 5.4
2014-Nov-14 21:33N 44°39' E 034°56'6 5.6
2014-Nov-14 20:33N 44°37' E 034°49'6 5.7
2014-Nov-14 19:33N 44°34' E 034°42'6 5.9
2014-Nov-14 18:33N 44°31' E 034°34'6 6.1
2014-Nov-14 17:33N 44°28' E 034°27'6 6.1
2014-Nov-14 16:33N 44°24' E 034°21'6 5.9
2014-Nov-14 15:33N 44°20' E 034°15'6 5.6
2014-Nov-14 14:32N 44°16' E 034°09'11 5.4
2014-Nov-14 12:32N 44°09' E 033°57'290 6.9
2014-Nov-12 18:15N 40°59' E 028°60'4 5.6
2014-Nov-12 17:33N 40°56' E 028°58'3 0.6
2014-Nov-12 12:13N 40°58' E 028°55'1 1.5
2014-Nov-12 11:30N 40°57' E 028°56'6 5.5
2014-Nov-12 10:29N 40°52' E 028°53'  
Track history (hours):
 
Tides and Currents Weather Stations Pressure Air Temp Water Temp Dewpoint Dewpoint Depression Visibility Wind Speed Wind Dir Waves Ship Positions

Altair

Last reported at 2014-Nov-15 10:22 UTC. Time now 2014-Nov-25 00:34 UTC.
Position N 44°54' E 036°31'.
Warning: this ship's position is 9 days out of date.

Length 108 m; draft 2.6 m.

Type: Cargo ship. MMSI: 667021000.

Date/timePositionNaut miles runAvg speedWind from/ knotsBaromVisibWave heightAir tempDewpointWater temp
2014-Nov-15 10:22N 44°54' E 036°31'18 6.1
2014-Nov-15 07:23N 44°46' E 036°07'5 6.1
2014-Nov-15 06:33N 44°45' E 036°00'32 5.3
2014-Nov-15 00:32N 44°46' E 035°16'5 5.2
2014-Nov-14 23:32N 44°44' E 035°09'5 5.2
2014-Nov-14 22:33N 44°42' E 035°02'5 5.4
2014-Nov-14 21:33N 44°39' E 034°56'6 5.6
2014-Nov-14 20:33N 44°37' E 034°49'6 5.7
2014-Nov-14 19:33N 44°34' E 034°42'6 5.9
2014-Nov-14 18:33N 44°31' E 034°34'6 6.1
2014-Nov-14 17:33N 44°28' E 034°27'6 6.1
2014-Nov-14 16:33N 44°24' E 034°21'6 5.9
2014-Nov-14 15:33N 44°20' E 034°15'6 5.6
2014-Nov-14 14:32N 44°16' E 034°09'11 5.4
2014-Nov-14 12:32N 44°09' E 033°57'290 6.9
2014-Nov-12 18:15N 40°59' E 028°60'4 5.6
2014-Nov-12 17:33N 40°56' E 028°58'3 0.6
2014-Nov-12 12:13N 40°58' E 028°55'1 1.5
2014-Nov-12 11:30N 40°57' E 028°56'6 5.5
2014-Nov-12 10:29N 40°52' E 028°53'  

Dump ship's entire track history